Time;durP1;ratioP1;P1;durP2;ratioP2;P2;SDS_P1;SDS_P2;PMS_P1;PMS_P2;Temp;Humidity;BMP_temperature;BMP_pressure;BME280_temperature;BME280_humidity;BME280_pressure;Samples;Min_cycle;Max_cycle;Signal;HPM_P1;HPM_P2
2023/05/30 00:01:43;;;;;;;3.40;3.10;;;;;;;;;;5093438;28;20111;-61
2023/05/30 00:04:09;;;;;;;3.25;2.78;;;;;;;;;;5093291;28;20205;-62
2023/05/30 00:06:34;;;;;;;3.20;2.90;;;;;;;;;;5093383;28;20098;-62
2023/05/30 00:09:04;;;;;;;3.63;2.90;;;;;;;;;;5093539;28;20030;-61
2023/05/30 00:11:30;;;;;;;2.88;2.65;;;;;;;;;;5093211;28;20028;-61
2023/05/30 00:13:56;;;;;;;3.60;2.90;;;;;;;;;;5093118;28;20552;-61
2023/05/30 00:16:23;;;;;;;3.20;2.90;;;;;;;;;;5093164;28;20105;-61
2023/05/30 00:18:52;;;;;;;3.67;2.80;;;;;;;;;;5093034;28;20036;-61
2023/05/30 00:21:18;;;;;;;3.45;2.75;;;;;;;;;;5093309;28;20425;-61
2023/05/30 00:23:45;;;;;;;3.20;2.75;;;;;;;;;;5093000;28;20572;-62
2023/05/30 00:26:10;;;;;;;3.70;2.90;;;;;;;;;;5093084;28;20024;-61
2023/05/30 00:28:36;;;;;;;3.10;2.78;;;;;;;;;;5092930;28;20049;-62
2023/05/30 00:31:02;;;;;;;4.60;3.00;;;;;;;;;;5093173;28;20039;-63
2023/05/30 00:33:28;;;;;;;4.90;2.78;;;;;;;;;;5092850;28;20032;-63
2023/05/30 00:35:53;;;;;;;4.13;3.00;;;;;;;;;;5092867;28;20099;-62
2023/05/30 00:38:20;;;;;;;3.85;2.70;;;;;;;;;;5092720;28;20051;-61
2023/05/30 00:40:45;;;;;;;2.85;2.65;;;;;;;;;;5092945;28;20054;-63
2023/05/30 00:43:11;;;;;;;3.88;2.85;;;;;;;;;;5092348;28;20032;-61
2023/05/30 00:45:37;;;;;;;3.20;2.72;;;;;;;;;;5093035;28;20027;-61
2023/05/30 00:48:04;;;;;;;3.53;2.80;;;;;;;;;;5092940;28;20379;-61
2023/05/30 00:50:31;;;;;;;3.40;2.80;;;;;;;;;;5092565;28;20024;-60
2023/05/30 00:52:58;;;;;;;3.80;3.05;;;;;;;;;;5092581;28;20028;-62
2023/05/30 00:55:27;;;;;;;4.28;2.90;;;;;;;;;;5092861;28;20093;-61
2023/05/30 00:57:53;;;;;;;3.47;2.90;;;;;;;;;;5092505;28;20031;-61
2023/05/30 01:00:19;;;;;;;2.88;2.55;;;;;;;;;;5092732;28;20115;-63
2023/05/30 01:02:46;;;;;;;3.92;2.97;;;;;;;;;;5092777;28;20056;-63
2023/05/30 01:05:14;;;;;;;3.25;2.95;;;;;;;;;;5092750;28;20070;-62
2023/05/30 01:07:43;;;;;;;3.95;2.88;;;;;;;;;;5092760;28;20107;-61
2023/05/30 01:10:13;;;;;;;3.30;2.80;;;;;;;;;;5092498;28;20486;-61
2023/05/30 01:12:41;;;;;;;3.27;2.97;;;;;;;;;;5092433;28;20475;-61
2023/05/30 01:15:19;;;;;;;3.10;2.85;;;;;;;;;;5092659;28;20272;-64
2023/05/30 01:18:01;;;;;;;3.25;2.75;;;;;;;;;;5092392;28;20031;-61
2023/05/30 01:20:38;;;;;;;3.25;2.90;;;;;;;;;;5092567;28;20035;-61
2023/05/30 01:23:09;;;;;;;3.38;2.63;;;;;;;;;;5092409;28;20031;-63
2023/05/30 01:25:35;;;;;;;2.95;2.72;;;;;;;;;;5092565;28;20028;-62
2023/05/30 01:28:10;;;;;;;3.30;3.00;;;;;;;;;;5092578;28;20020;-61
2023/05/30 01:30:38;;;;;;;2.97;2.70;;;;;;;;;;5092177;28;20433;-62
2023/05/30 01:33:07;;;;;;;3.25;2.67;;;;;;;;;;5092228;28;20119;-63
2023/05/30 01:35:32;;;;;;;3.00;2.70;;;;;;;;;;5092364;28;20050;-63
2023/05/30 01:37:58;;;;;;;2.80;2.60;;;;;;;;;;5092277;28;20523;-62
2023/05/30 01:40:28;;;;;;;4.50;2.90;;;;;;;;;;5092387;28;20438;-62
2023/05/30 01:43:15;;;;;;;2.92;2.63;;;;;;;;;;5092450;28;20494;-61
2023/05/30 01:46:02;;;;;;;2.90;2.70;;;;;;;;;;5092411;28;20025;-61
2023/05/30 01:48:40;;;;;;;3.70;2.75;;;;;;;;;;5092180;28;20032;-62
2023/05/30 01:51:12;;;;;;;3.38;3.00;;;;;;;;;;5092067;28;20107;-63
2023/05/30 01:53:45;;;;;;;3.13;2.83;;;;;;;;;;5093133;28;20055;-63
2023/05/30 01:56:14;;;;;;;3.83;2.90;;;;;;;;;;5095738;28;20024;-64
2023/05/30 01:58:40;;;;;;;4.07;3.17;;;;;;;;;;5096159;28;20387;-61
2023/05/30 02:01:07;;;;;;;3.13;2.78;;;;;;;;;;5095722;28;20028;-62
2023/05/30 02:03:34;;;;;;;2.80;2.50;;;;;;;;;;5095682;28;20027;-63
2023/05/30 02:06:00;;;;;;;3.20;2.90;;;;;;;;;;5095588;28;20067;-62
2023/05/30 02:08:26;;;;;;;3.47;2.92;;;;;;;;;;5095843;28;20027;-61
2023/05/30 02:10:52;;;;;;;2.75;2.47;;;;;;;;;;5095537;28;20028;-61
2023/05/30 02:13:18;;;;;;;2.70;2.40;;;;;;;;;;5095604;28;20073;-61
2023/05/30 02:15:44;;;;;;;3.17;2.70;;;;;;;;;;5095727;28;20052;-61
2023/05/30 02:18:10;;;;;;;3.22;2.90;;;;;;;;;;5095462;28;20045;-61
2023/05/30 02:20:36;;;;;;;2.63;2.42;;;;;;;;;;5095265;28;20043;-61
2023/05/30 02:23:02;;;;;;;3.30;3.00;;;;;;;;;;5095336;28;20032;-61
2023/05/30 02:25:28;;;;;;;3.10;2.83;;;;;;;;;;5095622;28;20133;-60
2023/05/30 02:27:54;;;;;;;2.95;2.65;;;;;;;;;;5095493;28;20020;-61
2023/05/30 02:30:20;;;;;;;2.85;2.58;;;;;;;;;;5095207;28;20598;-61
2023/05/30 02:32:45;;;;;;;3.22;2.92;;;;;;;;;;5095156;28;20062;-61
2023/05/30 02:35:12;;;;;;;2.85;2.63;;;;;;;;;;5095003;28;20024;-63
2023/05/30 02:37:39;;;;;;;3.05;2.75;;;;;;;;;;5095124;28;20098;-61
2023/05/30 02:40:07;;;;;;;3.17;2.70;;;;;;;;;;5095237;28;20030;-64
2023/05/30 02:42:33;;;;;;;3.63;2.78;;;;;;;;;;5094931;28;20024;-64
2023/05/30 02:44:58;;;;;;;3.13;2.83;;;;;;;;;;5095165;28;20073;-65
2023/05/30 02:47:24;;;;;;;3.03;2.55;;;;;;;;;;5094839;28;20437;-64
2023/05/30 02:49:50;;;;;;;3.15;2.80;;;;;;;;;;5094836;28;20028;-63
2023/05/30 02:52:16;;;;;;;3.15;2.85;;;;;;;;;;5095038;28;20077;-64
2023/05/30 02:54:43;;;;;;;4.30;2.72;;;;;;;;;;5094918;28;20417;-61
2023/05/30 02:57:09;;;;;;;3.00;2.72;;;;;;;;;;5094585;28;20028;-61
2023/05/30 02:59:34;;;;;;;3.00;2.70;;;;;;;;;;5094565;28;20027;-61
2023/05/30 03:02:00;;;;;;;3.10;2.70;;;;;;;;;;5094788;28;20032;-61
2023/05/30 03:04:32;;;;;;;3.47;3.00;;;;;;;;;;5094555;28;20031;-61
2023/05/30 03:06:59;;;;;;;2.63;2.40;;;;;;;;;;5093826;28;20032;-61
2023/05/30 03:09:24;;;;;;;2.80;2.60;;;;;;;;;;5094501;28;20547;-64
2023/05/30 03:11:50;;;;;;;4.40;2.65;;;;;;;;;;5094360;28;20032;-64
2023/05/30 03:14:16;;;;;;;5.50;2.83;;;;;;;;;;5094637;28;20089;-64
2023/05/30 03:16:41;;;;;;;3.33;2.72;;;;;;;;;;5094284;28;20498;-63
2023/05/30 03:19:07;;;;;;;2.88;2.63;;;;;;;;;;5094362;28;20039;-64
2023/05/30 03:21:34;;;;;;;3.42;2.92;;;;;;;;;;5094584;28;20137;-64
2023/05/30 03:23:59;;;;;;;3.10;2.80;;;;;;;;;;5094256;28;20111;-61
2023/05/30 03:26:25;;;;;;;4.32;2.92;;;;;;;;;;5094086;28;20066;-61
2023/05/30 03:28:51;;;;;;;3.35;3.05;;;;;;;;;;5094087;28;20023;-61
2023/05/30 03:31:18;;;;;;;3.45;2.90;;;;;;;;;;5094264;28;20081;-61
2023/05/30 03:33:44;;;;;;;3.40;2.80;;;;;;;;;;5093912;28;20024;-61
2023/05/30 03:36:10;;;;;;;3.03;2.72;;;;;;;;;;5093941;28;20069;-61
2023/05/30 03:38:37;;;;;;;3.35;2.92;;;;;;;;;;5093708;28;20575;-61
2023/05/30 03:41:03;;;;;;;2.72;2.53;;;;;;;;;;5093932;28;20425;-61
2023/05/30 03:43:29;;;;;;;4.20;2.70;;;;;;;;;;5092906;28;20119;-61
2023/05/30 03:45:55;;;;;;;3.15;2.70;;;;;;;;;;5109343;28;20381;-61
2023/05/30 03:48:20;;;;;;;4.65;2.50;;;;;;;;;;5093721;28;20032;-61
2023/05/30 03:50:46;;;;;;;2.72;2.53;;;;;;;;;;5093651;28;20030;-61
2023/05/30 03:53:12;;;;;;;2.72;2.50;;;;;;;;;;5093581;28;20066;-61
2023/05/30 03:55:37;;;;;;;2.88;2.67;;;;;;;;;;5093796;28;20024;-65
2023/05/30 03:58:02;;;;;;;2.95;2.72;;;;;;;;;;5093515;28;20048;-63
2023/05/30 04:00:28;;;;;;;2.72;2.53;;;;;;;;;;5093543;28;20040;-64
2023/05/30 04:02:54;;;;;;;3.00;2.65;;;;;;;;;;5093473;28;20074;-64
2023/05/30 04:05:20;;;;;;;2.80;2.60;;;;;;;;;;5093303;28;20348;-64
2023/05/30 04:07:47;;;;;;;2.70;2.50;;;;;;;;;;5093652;28;20055;-64
2023/05/30 04:10:13;;;;;;;2.83;2.50;;;;;;;;;;5093247;28;20055;-62
2023/05/30 04:12:38;;;;;;;3.00;2.70;;;;;;;;;;5093231;28;20056;-61
2023/05/30 04:15:04;;;;;;;3.88;2.60;;;;;;;;;;5093090;28;20020;-61
2023/05/30 04:17:30;;;;;;;3.47;2.70;;;;;;;;;;5092330;28;20035;-61
2023/05/30 04:19:56;;;;;;;3.30;2.75;;;;;;;;;;5093236;28;20077;-61
2023/05/30 04:22:22;;;;;;;3.08;2.78;;;;;;;;;;5093095;28;20028;-64
2023/05/30 04:24:47;;;;;;;2.75;2.55;;;;;;;;;;5092958;28;20456;-64
2023/05/30 04:27:13;;;;;;;2.83;2.63;;;;;;;;;;5092929;28;20072;-61
2023/05/30 04:29:42;;;;;;;3.75;2.85;;;;;;;;;;5091924;28;20085;-61
2023/05/30 04:32:09;;;;;;;3.30;2.78;;;;;;;;;;5091652;28;20016;-64
2023/05/30 04:34:34;;;;;;;3.30;3.00;;;;;;;;;;5092830;28;20202;-62
2023/05/30 04:37:01;;;;;;;2.65;2.42;;;;;;;;;;5092795;28;20126;-62
2023/05/30 04:39:27;;;;;;;2.65;2.45;;;;;;;;;;5092461;28;20058;-64
2023/05/30 04:41:54;;;;;;;2.60;2.40;;;;;;;;;;5093029;28;20032;-64
2023/05/30 04:44:20;;;;;;;3.42;2.80;;;;;;;;;;5092921;28;20120;-64
2023/05/30 04:46:46;;;;;;;3.22;2.92;;;;;;;;;;5092658;28;20025;-64
2023/05/30 04:49:14;;;;;;;3.72;2.45;;;;;;;;;;5092882;28;20070;-61
2023/05/30 04:51:40;;;;;;;3.03;2.83;;;;;;;;;;5092612;28;20074;-64
2023/05/30 04:54:05;;;;;;;4.18;2.78;;;;;;;;;;5092607;28;20032;-62
2023/05/30 04:56:31;;;;;;;3.00;2.67;;;;;;;;;;5092825;28;20032;-63
2023/05/30 04:58:57;;;;;;;4.88;3.10;;;;;;;;;;5091958;28;20120;-61
2023/05/30 05:01:23;;;;;;;2.72;2.53;;;;;;;;;;5091094;28;20499;-61
2023/05/30 05:03:49;;;;;;;2.97;2.63;;;;;;;;;;5092429;28;20106;-61
2023/05/30 05:06:15;;;;;;;2.90;2.70;;;;;;;;;;5092759;28;20103;-63
2023/05/30 05:08:41;;;;;;;3.28;2.97;;;;;;;;;;5092367;28;20024;-61
2023/05/30 05:11:07;;;;;;;2.88;2.67;;;;;;;;;;5092394;28;20020;-61
2023/05/30 05:13:34;;;;;;;3.38;2.70;;;;;;;;;;5089986;28;20048;-61
2023/05/30 05:16:00;;;;;;;2.90;2.70;;;;;;;;;;5091337;28;20044;-60
2023/05/30 05:18:27;;;;;;;3.00;2.70;;;;;;;;;;5089594;28;20027;-60
2023/05/30 05:20:52;;;;;;;3.50;2.78;;;;;;;;;;5088065;28;20366;-61
2023/05/30 05:23:18;;;;;;;3.40;2.80;;;;;;;;;;5088323;28;20024;-61
2023/05/30 05:25:44;;;;;;;2.78;2.58;;;;;;;;;;5091860;28;20410;-62
2023/05/30 05:28:10;;;;;;;2.88;2.63;;;;;;;;;;5086804;28;20024;-63
2023/05/30 05:30:36;;;;;;;4.55;2.67;;;;;;;;;;5087520;28;20383;-64
2023/05/30 05:33:02;;;;;;;2.85;2.65;;;;;;;;;;5095068;28;20034;-62
2023/05/30 05:35:27;;;;;;;3.47;3.03;;;;;;;;;;5096544;28;20564;-61
2023/05/30 05:37:53;;;;;;;3.40;3.10;;;;;;;;;;5094267;28;20449;-64
2023/05/30 05:40:19;;;;;;;3.10;2.80;;;;;;;;;;5096047;28;20123;-65
2023/05/30 05:42:45;;;;;;;3.20;2.90;;;;;;;;;;5095008;28;20425;-62
2023/05/30 05:45:11;;;;;;;3.38;2.70;;;;;;;;;;5095969;28;20020;-63
2023/05/30 05:47:37;;;;;;;2.80;2.60;;;;;;;;;;5095379;28;20375;-62
2023/05/30 05:50:02;;;;;;;3.10;2.80;;;;;;;;;;5095477;28;20032;-63
2023/05/30 05:52:28;;;;;;;3.45;2.83;;;;;;;;;;5095838;28;20437;-63
2023/05/30 05:54:53;;;;;;;3.85;2.90;;;;;;;;;;5095802;28;20028;-61
2023/05/30 05:57:19;;;;;;;3.10;2.80;;;;;;;;;;5095794;28;20031;-61
2023/05/30 05:59:44;;;;;;;3.45;2.63;;;;;;;;;;5095653;28;20016;-62
2023/05/30 06:02:11;;;;;;;2.83;2.63;;;;;;;;;;5095902;28;20146;-61
2023/05/30 06:04:37;;;;;;;3.58;2.80;;;;;;;;;;5111391;28;20031;-62
2023/05/30 06:07:03;;;;;;;3.10;2.80;;;;;;;;;;5111341;28;20078;-61
2023/05/30 06:09:31;;;;;;;3.00;2.80;;;;;;;;;;5095684;28;20103;-61
2023/05/30 06:12:01;;;;;;;3.22;2.80;;;;;;;;;;5095806;28;20116;-62
2023/05/30 06:14:27;;;;;;;;;;;;;;;;;;5095966;28;20020;-63
2023/05/30 06:16:53;;;;;;;3.20;2.90;;;;;;;;;;5095566;28;20007;-62
2023/05/30 06:19:18;;;;;;;3.95;2.92;;;;;;;;;;5095430;28;20020;-64
2023/05/30 06:21:44;;;;;;;4.13;2.97;;;;;;;;;;5095552;28;20367;-62
2023/05/30 06:24:10;;;;;;;2.90;2.70;;;;;;;;;;5095591;28;20428;-62
2023/05/30 06:26:35;;;;;;;2.83;2.63;;;;;;;;;;5095235;28;20052;-62
2023/05/30 06:29:01;;;;;;;2.90;2.63;;;;;;;;;;5095252;28;20028;-61
2023/05/30 06:31:29;;;;;;;3.70;2.90;;;;;;;;;;5095091;28;20024;-64
2023/05/30 06:33:55;;;;;;;3.05;2.75;;;;;;;;;;5093889;28;20115;-61
2023/05/30 06:36:20;;;;;;;3.88;3.03;;;;;;;;;;5094988;28;20112;-65
2023/05/30 06:38:46;;;;;;;3.40;2.75;;;;;;;;;;5094936;28;20442;-64
2023/05/30 06:41:11;;;;;;;3.10;2.80;;;;;;;;;;5093902;28;20464;-62
2023/05/30 06:43:37;;;;;;;3.08;2.70;;;;;;;;;;5094979;28;20024;-64
2023/05/30 06:46:02;;;;;;;3.03;2.72;;;;;;;;;;5094838;28;20024;-64
2023/05/30 06:48:28;;;;;;;3.25;2.83;;;;;;;;;;5094223;28;20813;-61
2023/05/30 06:50:54;;;;;;;4.28;2.65;;;;;;;;;;5085367;28;20033;-62
2023/05/30 06:53:19;;;;;;;4.03;2.95;;;;;;;;;;5075802;28;20036;-63
2023/05/30 06:55:45;;;;;;;4.03;2.63;;;;;;;;;;5083783;28;20031;-64
2023/05/30 06:58:12;;;;;;;3.05;2.75;;;;;;;;;;5092901;28;20041;-63
2023/05/30 07:00:38;;;;;;;3.33;2.80;;;;;;;;;;5091141;28;20039;-61
2023/05/30 07:03:04;;;;;;;3.38;2.83;;;;;;;;;;5093437;28;20020;-61
2023/05/30 07:05:29;;;;;;;3.25;2.65;;;;;;;;;;5094417;28;20056;-62
2023/05/30 07:07:55;;;;;;;3.08;2.72;;;;;;;;;;5093316;28;20016;-64
2023/05/30 07:10:21;;;;;;;2.95;2.45;;;;;;;;;;5094221;28;20502;-61
2023/05/30 07:12:46;;;;;;;2.95;2.75;;;;;;;;;;5094696;28;20024;-62
2023/05/30 07:15:13;;;;;;;3.45;2.83;;;;;;;;;;5091563;28;20020;-61
2023/05/30 07:17:38;;;;;;;3.38;3.08;;;;;;;;;;5092368;28;20040;-61
2023/05/30 07:20:05;;;;;;;2.97;2.65;;;;;;;;;;5092552;28;20113;-61
2023/05/30 07:22:31;;;;;;;2.80;2.60;;;;;;;;;;5092628;28;20075;-62
2023/05/30 07:24:57;;;;;;;3.40;2.78;;;;;;;;;;5092657;28;20514;-61
2023/05/30 07:27:22;;;;;;;4.40;2.92;;;;;;;;;;5092749;28;20467;-61
2023/05/30 07:29:48;;;;;;;3.33;2.92;;;;;;;;;;5092243;28;20483;-61
2023/05/30 07:32:13;;;;;;;4.70;3.28;;;;;;;;;;5092422;28;20016;-61
2023/05/30 07:34:40;;;;;;;3.97;3.08;;;;;;;;;;5092324;28;20028;-62
2023/05/30 07:37:06;;;;;;;3.20;2.90;;;;;;;;;;5092647;28;20491;-61
2023/05/30 07:39:32;;;;;;;4.00;3.03;;;;;;;;;;5091979;28;20058;-61
2023/05/30 07:41:57;;;;;;;4.55;2.92;;;;;;;;;;5092230;28;20039;-64
2023/05/30 07:44:23;;;;;;;3.20;2.83;;;;;;;;;;5092367;28;20024;-61
2023/05/30 07:46:48;;;;;;;3.17;2.85;;;;;;;;;;5092138;28;20401;-61
2023/05/30 07:49:14;;;;;;;3.20;2.90;;;;;;;;;;5091988;28;20302;-61
2023/05/30 07:51:40;;;;;;;2.97;2.60;;;;;;;;;;5092169;28;20035;-61
2023/05/30 07:54:05;;;;;;;3.20;2.70;;;;;;;;;;5092039;28;20437;-62
2023/05/30 07:56:31;;;;;;;3.55;2.88;;;;;;;;;;5091817;28;20028;-61
2023/05/30 07:58:57;;;;;;;3.40;3.10;;;;;;;;;;5092146;28;20035;-62
2023/05/30 08:01:22;;;;;;;2.72;2.47;;;;;;;;;;5091677;28;20618;-61
2023/05/30 08:03:48;;;;;;;3.17;2.63;;;;;;;;;;5092058;28;20036;-62
2023/05/30 08:06:13;;;;;;;3.50;2.78;;;;;;;;;;5091701;28;20391;-62
2023/05/30 08:08:40;;;;;;;3.25;2.97;;;;;;;;;;5091673;28;20112;-64
2023/05/30 08:11:05;;;;;;;3.42;2.97;;;;;;;;;;5091607;28;20024;-63
2023/05/30 08:13:31;;;;;;;4.50;2.88;;;;;;;;;;5091505;28;20119;-62
2023/05/30 08:15:57;;;;;;;4.15;3.20;;;;;;;;;;5089980;28;20077;-65
2023/05/30 08:18:23;;;;;;;3.40;3.10;;;;;;;;;;5091386;28;20091;-64
2023/05/30 08:20:52;;;;;;;3.55;3.10;;;;;;;;;;5091575;28;20085;-66
2023/05/30 08:23:17;;;;;;;4.38;2.70;;;;;;;;;;5091138;28;20044;-66
2023/05/30 08:25:45;;;;;;;4.15;2.67;;;;;;;;;;5071113;28;20031;-64
2023/05/30 08:28:11;;;;;;;3.95;2.90;;;;;;;;;;5071203;28;20028;-66
2023/05/30 08:30:36;;;;;;;3.58;3.00;;;;;;;;;;5071049;28;20135;-63
2023/05/30 08:33:02;;;;;;;4.18;2.80;;;;;;;;;;5071090;28;20024;-63
2023/05/30 08:35:28;;;;;;;3.33;3.00;;;;;;;;;;5071170;28;20028;-62
2023/05/30 08:37:54;;;;;;;3.55;2.80;;;;;;;;;;5070911;28;20455;-63
2023/05/30 08:40:22;;;;;;;3.20;2.90;;;;;;;;;;5070636;28;20036;-62
2023/05/30 08:42:48;;;;;;;3.22;2.70;;;;;;;;;;5089456;28;20051;-63
2023/05/30 08:45:13;;;;;;;3.30;2.80;;;;;;;;;;5090165;28;20056;-64
2023/05/30 08:47:40;;;;;;;3.45;3.15;;;;;;;;;;5089971;28;20032;-65
2023/05/30 08:50:07;;;;;;;3.30;3.00;;;;;;;;;;5088118;28;20080;-61
2023/05/30 08:52:33;;;;;;;3.22;2.78;;;;;;;;;;5086911;28;20023;-64
2023/05/30 08:55:07;;;;;;;3.67;3.15;;;;;;;;;;5089618;28;20035;-61
2023/05/30 08:57:46;;;;;;;4.97;3.10;;;;;;;;;;5089207;28;20035;-61
2023/05/30 09:00:14;;;;;;;6.05;2.85;;;;;;;;;;5085512;28;20031;-64
2023/05/30 09:02:40;;;;;;;8.80;2.90;;;;;;;;;;5088611;28;20862;-63
2023/05/30 09:05:08;;;;;;;3.10;2.80;;;;;;;;;;5077212;28;20073;-62
2023/05/30 09:07:35;;;;;;;3.03;2.80;;;;;;;;;;5069419;28;20029;-62
2023/05/30 09:10:04;;;;;;;6.15;2.80;;;;;;;;;;5070695;28;20032;-62
2023/05/30 09:12:30;;;;;;;3.33;3.03;;;;;;;;;;5070548;28;20028;-62
2023/05/30 09:14:56;;;;;;;3.38;2.90;;;;;;;;;;5070901;28;20031;-64
2023/05/30 09:17:22;;;;;;;5.47;3.05;;;;;;;;;;5070559;28;20545;-62
2023/05/30 09:19:48;;;;;;;3.33;3.03;;;;;;;;;;5070160;28;20028;-62
2023/05/30 09:22:15;;;;;;;3.35;3.00;;;;;;;;;;5070576;28;20028;-62
2023/05/30 09:24:58;;;;;;;2.67;2.47;;;;;;;;;;5070403;28;20016;-62
2023/05/30 09:27:24;;;;;;;3.03;2.83;;;;;;;;;;5077354;28;20036;-63
2023/05/30 09:29:50;;;;;;;5.25;3.22;;;;;;;;;;5090616;28;20534;-63
2023/05/30 09:32:15;;;;;;;3.55;2.92;;;;;;;;;;5106241;28;20028;-65
2023/05/30 09:34:52;;;;;;;3.88;3.05;;;;;;;;;;5090614;28;20028;-62
2023/05/30 09:37:18;;;;;;;3.10;2.70;;;;;;;;;;5090760;28;20024;-63
2023/05/30 09:40:15;;;;;;;3.13;2.83;;;;;;;;;;5088471;28;20537;-65
2023/05/30 09:42:49;;;;;;;3.10;2.67;;;;;;;;;;5090229;28;20028;-63
2023/05/30 09:45:23;;;;;;;3.28;2.97;;;;;;;;;;5089680;28;20031;-62
2023/05/30 09:47:51;;;;;;;4.45;3.10;;;;;;;;;;5089032;28;20472;-62
2023/05/30 09:50:22;;;;;;;4.05;2.97;;;;;;;;;;5090272;28;20052;-66
2023/05/30 09:52:51;;;;;;;5.43;2.90;;;;;;;;;;5090434;28;20023;-63
2023/05/30 09:55:18;;;;;;;3.33;3.03;;;;;;;;;;5090618;28;20115;-64
2023/05/30 09:57:48;;;;;;;5.32;3.10;;;;;;;;;;5087470;28;20525;-64
2023/05/30 10:00:17;;;;;;;3.03;2.72;;;;;;;;;;5086141;28;20032;-62
2023/05/30 10:02:44;;;;;;;3.72;2.85;;;;;;;;;;5103758;28;20426;-63
2023/05/30 10:05:27;;;;;;;4.15;2.92;;;;;;;;;;5090440;28;20480;-62
2023/05/30 10:07:54;;;;;;;3.33;3.03;;;;;;;;;;5090352;28;20386;-61
2023/05/30 10:10:20;;;;;;;3.10;2.80;;;;;;;;;;5090314;28;20055;-64
2023/05/30 10:12:51;;;;;;;3.55;2.90;;;;;;;;;;5089452;28;20078;-62
2023/05/30 10:15:18;;;;;;;3.30;2.95;;;;;;;;;;5090369;28;20028;-63
2023/05/30 10:18:08;;;;;;;4.40;3.40;;;;;;;;;;5091840;28;20676;-63
2023/05/30 10:20:44;;;;;;;4.15;3.05;;;;;;;;;;5092496;28;20790;-62
2023/05/30 10:23:12;;;;;;;2.90;2.70;;;;;;;;;;5093755;28;20144;-60
2023/05/30 10:25:44;;;;;;;6.40;3.20;;;;;;;;;;5093643;28;20062;-63
2023/05/30 10:28:18;;;;;;;4.15;2.95;;;;;;;;;;5093405;28;20059;-62
2023/05/30 10:30:46;;;;;;;3.30;3.00;;;;;;;;;;5093529;28;20032;-60
2023/05/30 10:33:14;;;;;;;3.75;3.03;;;;;;;;;;5093573;28;20475;-63
2023/05/30 10:35:41;;;;;;;4.43;2.92;;;;;;;;;;5091974;28;20086;-64
2023/05/30 10:38:08;;;;;;;4.13;3.33;;;;;;;;;;5093286;28;20119;-66
2023/05/30 10:41:03;;;;;;;3.28;2.92;;;;;;;;;;5093323;28;20098;-64
2023/05/30 10:43:54;;;;;;;3.00;2.80;;;;;;;;;;5091867;28;20074;-61
2023/05/30 10:46:47;;;;;;;3.45;3.15;;;;;;;;;;5092107;28;20103;-63
2023/05/30 10:49:18;;;;;;;3.28;2.97;;;;;;;;;;5093104;28;20020;-61
2023/05/30 10:52:17;;;;;;;3.92;3.25;;;;;;;;;;5091409;28;20124;-61
2023/05/30 10:54:46;;;;;;;3.20;2.90;;;;;;;;;;5080098;28;20084;-61
2023/05/30 10:57:26;;;;;;;3.33;3.00;;;;;;;;;;5093045;28;20020;-63
2023/05/30 10:59:55;;;;;;;;;;;;;;;;;;5093397;28;20028;-63
2023/05/30 11:02:34;;;;;;;3.20;2.75;;;;;;;;;;5090101;28;19927;-63
2023/05/30 11:05:05;;;;;;;3.20;2.90;;;;;;;;;;5091701;28;20031;-64
2023/05/30 11:07:40;;;;;;;4.13;3.22;;;;;;;;;;5092635;28;20036;-64
2023/05/30 11:10:10;;;;;;;3.70;3.33;;;;;;;;;;5093165;28;20501;-63
2023/05/30 11:12:45;;;;;;;2.92;2.67;;;;;;;;;;5094363;28;20058;-61
2023/05/30 11:15:16;;;;;;;5.55;2.95;;;;;;;;;;5092081;28;20028;-62
2023/05/30 11:17:42;;;;;;;5.50;2.88;;;;;;;;;;5090386;28;20031;-64
2023/05/30 11:20:12;;;;;;;4.45;3.03;;;;;;;;;;5093132;28;20032;-63
2023/05/30 11:22:38;;;;;;;6.45;3.10;;;;;;;;;;5093309;28;20052;-63
2023/05/30 11:25:25;;;;;;;5.38;2.88;;;;;;;;;;5091225;28;20028;-64
2023/05/30 11:28:10;;;;;;;3.72;3.15;;;;;;;;;;5092946;28;20032;-63
2023/05/30 11:30:40;;;;;;;3.38;3.08;;;;;;;;;;5093197;28;20122;-63
2023/05/30 11:33:16;;;;;;;3.35;2.88;;;;;;;;;;5093766;28;20027;-64
2023/05/30 11:35:45;;;;;;;3.47;2.85;;;;;;;;;;5094097;28;20028;-64
2023/05/30 11:38:25;;;;;;;5.45;2.90;;;;;;;;;;5093797;28;20044;-60
2023/05/30 11:40:51;;;;;;;3.78;3.00;;;;;;;;;;5093564;28;20043;-65
2023/05/30 11:43:17;;;;;;;3.15;2.80;;;;;;;;;;5093471;28;20029;-66
2023/05/30 11:45:46;;;;;;;3.55;3.25;;;;;;;;;;5074722;28;20028;-64
2023/05/30 11:48:12;;;;;;;3.25;2.60;;;;;;;;;;5093975;28;20035;-65
2023/05/30 11:50:41;;;;;;;3.13;2.83;;;;;;;;;;5093587;28;20024;-62
2023/05/30 11:53:12;;;;;;;2.90;2.70;;;;;;;;;;5093688;28;20032;-63
2023/05/30 11:55:38;;;;;;;2.88;2.65;;;;;;;;;;5093708;28;20024;-66
2023/05/30 11:58:04;;;;;;;3.28;3.00;;;;;;;;;;5093783;28;20028;-66
2023/05/30 12:00:30;;;;;;;3.38;2.90;;;;;;;;;;5093624;28;20115;-64
2023/05/30 12:02:55;;;;;;;3.05;2.75;;;;;;;;;;5092005;28;20115;-65
2023/05/30 12:05:21;;;;;;;3.00;2.80;;;;;;;;;;5093249;28;20039;-67
2023/05/30 12:07:52;;;;;;;2.80;2.60;;;;;;;;;;5093381;28;20028;-68
2023/05/30 12:10:27;;;;;;;2.80;2.60;;;;;;;;;;5093113;28;20119;-65
2023/05/30 12:12:53;;;;;;;3.97;2.78;;;;;;;;;;5093103;28;20031;-64
2023/05/30 12:15:18;;;;;;;2.83;2.53;;;;;;;;;;5093119;28;20464;-66
2023/05/30 12:17:45;;;;;;;2.72;2.53;;;;;;;;;;5091834;28;20024;-65
2023/05/30 12:20:13;;;;;;;2.90;2.60;;;;;;;;;;5092974;28;20031;-62
2023/05/30 12:22:44;;;;;;;2.63;2.42;;;;;;;;;;5093292;28;20487;-62
2023/05/30 12:25:12;;;;;;;4.53;3.47;;;;;;;;;;5092915;28;20039;-63
2023/05/30 12:27:49;;;;;;;2.83;2.60;;;;;;;;;;5092850;28;20027;-65
2023/05/30 12:30:19;;;;;;;3.03;2.72;;;;;;;;;;5091631;28;20028;-64
2023/05/30 12:32:45;;;;;;;;;;;;;;;;;;5093280;28;20024;-63
2023/05/30 12:35:12;;;;;;;3.03;2.72;;;;;;;;;;5092852;28;19919;-65
2023/05/30 12:37:38;;;;;;;3.03;2.70;;;;;;;;;;5092140;28;20102;-64
2023/05/30 12:40:06;;;;;;;3.30;2.70;;;;;;;;;;5092384;28;20489;-64
2023/05/30 12:42:33;;;;;;;3.03;2.70;;;;;;;;;;5092933;28;20383;-65
2023/05/30 12:45:00;;;;;;;2.70;2.50;;;;;;;;;;5091371;28;20237;-64
2023/05/30 12:47:27;;;;;;;2.70;2.50;;;;;;;;;;5093056;28;20048;-64
2023/05/30 12:49:57;;;;;;;3.28;2.50;;;;;;;;;;5092733;28;20016;-64
2023/05/30 12:52:27;;;;;;;3.67;2.85;;;;;;;;;;5092516;28;20418;-62
2023/05/30 12:54:53;;;;;;;4.63;2.88;;;;;;;;;;5092548;28;20383;-64
2023/05/30 12:57:24;;;;;;;3.08;2.78;;;;;;;;;;5092470;28;20020;-64
2023/05/30 12:59:50;;;;;;;2.63;2.42;;;;;;;;;;5092427;28;20036;-65
2023/05/30 13:02:15;;;;;;;2.72;2.53;;;;;;;;;;5092491;28;20532;-65
2023/05/30 13:04:42;;;;;;;3.00;2.70;;;;;;;;;;5092366;28;20031;-65
2023/05/30 13:07:11;;;;;;;3.28;2.88;;;;;;;;;;5092519;28;20020;-65
2023/05/30 13:09:38;;;;;;;3.00;2.67;;;;;;;;;;5092345;28;20165;-63
2023/05/30 13:12:08;;;;;;;3.35;2.80;;;;;;;;;;5092141;28;20043;-64
2023/05/30 13:14:34;;;;;;;4.25;2.80;;;;;;;;;;5092649;28;20039;-65
2023/05/30 13:16:59;;;;;;;3.47;2.50;;;;;;;;;;5092056;28;20043;-63
2023/05/30 13:19:25;;;;;;;2.88;2.55;;;;;;;;;;5092253;28;20024;-63
2023/05/30 13:21:51;;;;;;;3.00;2.70;;;;;;;;;;5092375;28;20078;-64
2023/05/30 13:24:17;;;;;;;2.55;2.35;;;;;;;;;;5092203;28;20493;-64
2023/05/30 13:26:42;;;;;;;3.22;2.70;;;;;;;;;;5092227;28;20030;-63
2023/05/30 13:29:08;;;;;;;2.80;2.50;;;;;;;;;;5092113;28;20028;-64
2023/05/30 13:31:34;;;;;;;2.97;2.60;;;;;;;;;;5092123;28;20081;-64
2023/05/30 13:34:00;;;;;;;5.22;2.95;;;;;;;;;;5092155;28;20036;-64
2023/05/30 13:36:26;;;;;;;3.50;2.80;;;;;;;;;;5092178;28;20043;-64
2023/05/30 13:38:53;;;;;;;3.65;2.42;;;;;;;;;;5092382;28;20080;-63
2023/05/30 13:41:20;;;;;;;3.50;2.95;;;;;;;;;;5090623;28;20085;-62
2023/05/30 13:43:45;;;;;;;3.15;2.60;;;;;;;;;;5092327;28;20028;-64
2023/05/30 13:46:11;;;;;;;3.05;2.72;;;;;;;;;;5091940;28;20028;-65
2023/05/30 13:48:36;;;;;;;3.65;2.80;;;;;;;;;;5092016;28;20028;-65
2023/05/30 13:51:02;;;;;;;3.25;2.95;;;;;;;;;;5093978;28;20031;-65
2023/05/30 13:53:27;;;;;;;4.72;2.90;;;;;;;;;;5095875;28;20030;-64
2023/05/30 13:55:53;;;;;;;3.75;2.67;;;;;;;;;;5094451;28;20028;-63
2023/05/30 13:58:18;;;;;;;3.80;2.70;;;;;;;;;;5094538;28;20387;-65
2023/05/30 14:00:44;;;;;;;3.17;2.90;;;;;;;;;;5095645;28;20035;-64
2023/05/30 14:03:10;;;;;;;3.13;2.85;;;;;;;;;;5095223;28;20035;-66
2023/05/30 14:05:35;;;;;;;2.97;2.60;;;;;;;;;;5095695;28;20281;-65
2023/05/30 14:08:03;;;;;;;3.58;2.55;;;;;;;;;;5095724;28;20059;-63
2023/05/30 14:10:29;;;;;;;2.70;2.50;;;;;;;;;;5095481;28;20032;-65
2023/05/30 14:12:55;;;;;;;3.85;2.55;;;;;;;;;;5095520;28;20024;-65
2023/05/30 14:15:21;;;;;;;3.33;2.65;;;;;;;;;;5095554;28;20418;-63
2023/05/30 14:17:47;;;;;;;2.95;2.40;;;;;;;;;;5095474;28;20028;-65
2023/05/30 14:20:13;;;;;;;2.75;2.55;;;;;;;;;;5095304;28;20024;-64
2023/05/30 14:22:40;;;;;;;2.60;2.40;;;;;;;;;;5095464;28;20090;-64
2023/05/30 14:25:06;;;;;;;2.78;2.42;;;;;;;;;;5095401;28;20024;-64
2023/05/30 14:27:32;;;;;;;4.05;2.60;;;;;;;;;;5095098;28;20027;-65
2023/05/30 14:29:58;;;;;;;3.30;2.97;;;;;;;;;;5093677;28;20051;-65
2023/05/30 14:32:24;;;;;;;4.22;3.67;;;;;;;;;;5093768;28;20054;-62
2023/05/30 14:34:50;;;;;;;3.83;3.40;;;;;;;;;;5095131;28;20482;-64
2023/05/30 14:37:16;;;;;;;3.70;3.13;;;;;;;;;;5094814;28;20047;-65
2023/05/30 14:39:41;;;;;;;6.63;3.78;;;;;;;;;;5094890;28;20119;-64
2023/05/30 14:42:07;;;;;;;4.20;3.38;;;;;;;;;;5094777;28;20028;-65
2023/05/30 14:44:33;;;;;;;7.60;3.75;;;;;;;;;;5094789;28;20528;-63
2023/05/30 14:46:59;;;;;;;3.70;3.40;;;;;;;;;;5094570;28;20564;-65